sensor_id;sensor_type;location;lat;lon;timestamp;temperature;humidity
32753;DHT22;19121;52.428;10.816;2023-06-14T00:01:25;25.30;36.50
32753;DHT22;19121;52.428;10.816;2023-06-14T00:03:51;25.30;36.40
32753;DHT22;19121;52.428;10.816;2023-06-14T00:06:17;25.30;36.40
32753;DHT22;19121;52.428;10.816;2023-06-14T00:08:43;25.30;36.40
32753;DHT22;19121;52.428;10.816;2023-06-14T00:11:08;25.30;36.50
32753;DHT22;19121;52.428;10.816;2023-06-14T00:13:33;25.30;36.50
32753;DHT22;19121;52.428;10.816;2023-06-14T00:15:59;25.30;36.50
32753;DHT22;19121;52.428;10.816;2023-06-14T00:18:24;25.20;36.50
32753;DHT22;19121;52.428;10.816;2023-06-14T00:20:54;25.20;36.50
32753;DHT22;19121;52.428;10.816;2023-06-14T00:23:20;25.20;36.50
32753;DHT22;19121;52.428;10.816;2023-06-14T00:25:45;25.20;36.50
32753;DHT22;19121;52.428;10.816;2023-06-14T00:28:11;25.20;36.40
32753;DHT22;19121;52.428;10.816;2023-06-14T00:30:36;25.20;36.50
32753;DHT22;19121;52.428;10.816;2023-06-14T00:33:02;25.20;36.50
32753;DHT22;19121;52.428;10.816;2023-06-14T00:35:27;25.20;36.50
32753;DHT22;19121;52.428;10.816;2023-06-14T00:37:53;25.20;36.50
32753;DHT22;19121;52.428;10.816;2023-06-14T00:40:20;25.20;36.60
32753;DHT22;19121;52.428;10.816;2023-06-14T00:42:45;25.20;36.50
32753;DHT22;19121;52.428;10.816;2023-06-14T00:45:11;25.20;36.60
32753;DHT22;19121;52.428;10.816;2023-06-14T00:47:36;25.20;36.60
32753;DHT22;19121;52.428;10.816;2023-06-14T00:50:03;25.20;36.60
32753;DHT22;19121;52.428;10.816;2023-06-14T00:52:31;25.10;36.50
32753;DHT22;19121;52.428;10.816;2023-06-14T00:54:57;25.20;36.60
32753;DHT22;19121;52.428;10.816;2023-06-14T00:57:23;25.10;36.60
32753;DHT22;19121;52.428;10.816;2023-06-14T00:59:49;25.10;36.60
32753;DHT22;19121;52.428;10.816;2023-06-14T01:02:15;25.10;36.60
32753;DHT22;19121;52.428;10.816;2023-06-14T01:04:41;25.10;36.60
32753;DHT22;19121;52.428;10.816;2023-06-14T01:07:12;25.10;36.60
32753;DHT22;19121;52.428;10.816;2023-06-14T01:12:46;25.10;36.60
32753;DHT22;19121;52.428;10.816;2023-06-14T01:15:13;25.10;36.70
32753;DHT22;19121;52.428;10.816;2023-06-14T01:17:40;25.10;36.70
32753;DHT22;19121;52.428;10.816;2023-06-14T01:20:10;25.10;36.70
32753;DHT22;19121;52.428;10.816;2023-06-14T01:23:12;25.10;36.70
32753;DHT22;19121;52.428;10.816;2023-06-14T01:25:31;25.10;36.70
32753;DHT22;19121;52.428;10.816;2023-06-14T01:28:00;25.00;36.60
32753;DHT22;19121;52.428;10.816;2023-06-14T01:30:26;25.00;36.70
32753;DHT22;19121;52.428;10.816;2023-06-14T01:32:53;25.00;36.70
32753;DHT22;19121;52.428;10.816;2023-06-14T01:35:20;25.00;36.70
32753;DHT22;19121;52.428;10.816;2023-06-14T01:37:46;25.00;36.80
32753;DHT22;19121;52.428;10.816;2023-06-14T01:40:12;25.00;36.70
32753;DHT22;19121;52.428;10.816;2023-06-14T01:42:39;25.00;36.80
32753;DHT22;19121;52.428;10.816;2023-06-14T01:45:05;25.00;36.70
32753;DHT22;19121;52.428;10.816;2023-06-14T01:47:32;24.90;36.70
32753;DHT22;19121;52.428;10.816;2023-06-14T01:49:58;25.00;36.80
32753;DHT22;19121;52.428;10.816;2023-06-14T01:52:23;24.90;36.80
32753;DHT22;19121;52.428;10.816;2023-06-14T01:54:49;24.90;36.70
32753;DHT22;19121;52.428;10.816;2023-06-14T01:57:15;24.90;36.80
32753;DHT22;19121;52.428;10.816;2023-06-14T01:59:41;24.90;36.80
32753;DHT22;19121;52.428;10.816;2023-06-14T02:02:06;24.90;36.80
32753;DHT22;19121;52.428;10.816;2023-06-14T02:04:32;24.90;36.90
32753;DHT22;19121;52.428;10.816;2023-06-14T02:06:57;24.90;36.90
32753;DHT22;19121;52.428;10.816;2023-06-14T02:09:23;24.90;36.90
32753;DHT22;19121;52.428;10.816;2023-06-14T02:11:49;24.90;36.90
32753;DHT22;19121;52.428;10.816;2023-06-14T02:14:14;24.80;36.90
32753;DHT22;19121;52.428;10.816;2023-06-14T02:16:40;24.80;36.90
32753;DHT22;19121;52.428;10.816;2023-06-14T02:19:05;24.80;36.80
32753;DHT22;19121;52.428;10.816;2023-06-14T02:21:31;24.90;36.90
32753;DHT22;19121;52.428;10.816;2023-06-14T02:23:56;24.80;36.90
32753;DHT22;19121;52.428;10.816;2023-06-14T02:26:23;24.80;37.00
32753;DHT22;19121;52.428;10.816;2023-06-14T02:28:49;24.80;36.90
32753;DHT22;19121;52.428;10.816;2023-06-14T02:31:14;24.80;36.90
32753;DHT22;19121;52.428;10.816;2023-06-14T02:33:41;24.80;36.90
32753;DHT22;19121;52.428;10.816;2023-06-14T02:36:07;24.80;37.00
32753;DHT22;19121;52.428;10.816;2023-06-14T02:38:32;24.80;37.00
32753;DHT22;19121;52.428;10.816;2023-06-14T02:40:58;24.80;37.00
32753;DHT22;19121;52.428;10.816;2023-06-14T02:43:25;24.70;36.90
32753;DHT22;19121;52.428;10.816;2023-06-14T02:45:50;24.70;37.00
32753;DHT22;19121;52.428;10.816;2023-06-14T02:48:16;24.70;37.00
32753;DHT22;19121;52.428;10.816;2023-06-14T02:50:41;24.70;37.00
32753;DHT22;19121;52.428;10.816;2023-06-14T02:53:07;24.70;37.00
32753;DHT22;19121;52.428;10.816;2023-06-14T02:55:33;24.70;37.00
32753;DHT22;19121;52.428;10.816;2023-06-14T02:57:58;24.70;37.10
32753;DHT22;19121;52.428;10.816;2023-06-14T03:00:24;24.60;37.00
32753;DHT22;19121;52.428;10.816;2023-06-14T03:02:49;24.70;37.10
32753;DHT22;19121;52.428;10.816;2023-06-14T03:05:16;24.70;37.10
32753;DHT22;19121;52.428;10.816;2023-06-14T03:07:45;24.70;37.10
32753;DHT22;19121;52.428;10.816;2023-06-14T03:10:12;24.60;37.10
32753;DHT22;19121;52.428;10.816;2023-06-14T03:12:38;24.60;37.10
32753;DHT22;19121;52.428;10.816;2023-06-14T03:15:04;24.60;37.10
32753;DHT22;19121;52.428;10.816;2023-06-14T03:17:29;24.60;37.10
32753;DHT22;19121;52.428;10.816;2023-06-14T03:19:57;24.60;37.10
32753;DHT22;19121;52.428;10.816;2023-06-14T03:22:22;24.60;37.10
32753;DHT22;19121;52.428;10.816;2023-06-14T03:24:49;24.60;37.10
32753;DHT22;19121;52.428;10.816;2023-06-14T03:27:15;24.60;37.20
32753;DHT22;19121;52.428;10.816;2023-06-14T03:29:41;24.60;37.20
32753;DHT22;19121;52.428;10.816;2023-06-14T03:32:06;24.60;37.20
32753;DHT22;19121;52.428;10.816;2023-06-14T03:34:32;24.60;37.20
32753;DHT22;19121;52.428;10.816;2023-06-14T03:36:57;24.60;37.20
32753;DHT22;19121;52.428;10.816;2023-06-14T03:39:23;24.50;37.20
32753;DHT22;19121;52.428;10.816;2023-06-14T03:41:48;24.50;37.20
32753;DHT22;19121;52.428;10.816;2023-06-14T03:44:15;24.50;37.20
32753;DHT22;19121;52.428;10.816;2023-06-14T03:46:41;24.50;37.20
32753;DHT22;19121;52.428;10.816;2023-06-14T03:49:06;24.50;37.20
32753;DHT22;19121;52.428;10.816;2023-06-14T03:51:32;24.50;37.20
32753;DHT22;19121;52.428;10.816;2023-06-14T03:54:00;24.50;37.20
32753;DHT22;19121;52.428;10.816;2023-06-14T03:56:26;24.50;37.30
32753;DHT22;19121;52.428;10.816;2023-06-14T03:58:52;24.50;37.30
32753;DHT22;19121;52.428;10.816;2023-06-14T04:01:17;24.50;37.30
32753;DHT22;19121;52.428;10.816;2023-06-14T04:03:43;24.50;37.30
32753;DHT22;19121;52.428;10.816;2023-06-14T04:06:08;24.50;37.20
32753;DHT22;19121;52.428;10.816;2023-06-14T04:08:34;24.50;37.20
32753;DHT22;19121;52.428;10.816;2023-06-14T04:11:00;24.50;37.20
32753;DHT22;19121;52.428;10.816;2023-06-14T04:13:26;24.50;37.10
32753;DHT22;19121;52.428;10.816;2023-06-14T04:15:51;24.50;37.10
32753;DHT22;19121;52.428;10.816;2023-06-14T04:18:16;24.50;37.10
32753;DHT22;19121;52.428;10.816;2023-06-14T04:20:43;24.50;37.10
32753;DHT22;19121;52.428;10.816;2023-06-14T04:23:16;24.50;37.10
32753;DHT22;19121;52.428;10.816;2023-06-14T04:25:43;24.50;37.10
32753;DHT22;19121;52.428;10.816;2023-06-14T04:28:10;24.50;37.10
32753;DHT22;19121;52.428;10.816;2023-06-14T04:30:36;24.50;37.20
32753;DHT22;19121;52.428;10.816;2023-06-14T04:33:04;24.50;36.90
32753;DHT22;19121;52.428;10.816;2023-06-14T04:35:31;24.60;36.80
32753;DHT22;19121;52.428;10.816;2023-06-14T04:37:57;24.60;36.80
32753;DHT22;19121;52.428;10.816;2023-06-14T04:40:23;24.60;36.80
32753;DHT22;19121;52.428;10.816;2023-06-14T04:42:49;24.60;36.70
32753;DHT22;19121;52.428;10.816;2023-06-14T04:45:16;24.60;36.70
32753;DHT22;19121;52.428;10.816;2023-06-14T04:47:42;24.60;36.60
32753;DHT22;19121;52.428;10.816;2023-06-14T04:50:07;24.60;36.60
32753;DHT22;19121;52.428;10.816;2023-06-14T04:52:33;24.60;36.60
32753;DHT22;19121;52.428;10.816;2023-06-14T04:54:58;24.60;36.70
32753;DHT22;19121;52.428;10.816;2023-06-14T04:57:24;24.60;36.60
32753;DHT22;19121;52.428;10.816;2023-06-14T04:59:50;24.70;36.60
32753;DHT22;19121;52.428;10.816;2023-06-14T05:02:23;24.70;36.60
32753;DHT22;19121;52.428;10.816;2023-06-14T05:04:49;24.70;36.60
32753;DHT22;19121;52.428;10.816;2023-06-14T05:07:15;24.80;36.70
32753;DHT22;19121;52.428;10.816;2023-06-14T05:09:40;24.80;36.70
32753;DHT22;19121;52.428;10.816;2023-06-14T05:12:06;24.80;36.60
32753;DHT22;19121;52.428;10.816;2023-06-14T05:14:35;24.80;37.30
32753;DHT22;19121;52.428;10.816;2023-06-14T05:17:01;24.80;36.60
32753;DHT22;19121;52.428;10.816;2023-06-14T05:19:27;24.90;36.70
32753;DHT22;19121;52.428;10.816;2023-06-14T05:21:53;24.90;36.70
32753;DHT22;19121;52.428;10.816;2023-06-14T05:24:19;24.90;36.60
32753;DHT22;19121;52.428;10.816;2023-06-14T05:26:45;24.90;36.60
32753;DHT22;19121;52.428;10.816;2023-06-14T05:29:10;24.90;36.60
32753;DHT22;19121;52.428;10.816;2023-06-14T05:31:36;25.00;36.60
32753;DHT22;19121;52.428;10.816;2023-06-14T05:34:01;25.00;36.60
32753;DHT22;19121;52.428;10.816;2023-06-14T05:36:27;25.00;36.50
32753;DHT22;19121;52.428;10.816;2023-06-14T05:38:53;25.00;36.50
32753;DHT22;19121;52.428;10.816;2023-06-14T05:41:25;25.10;36.50
32753;DHT22;19121;52.428;10.816;2023-06-14T05:43:51;25.10;36.50
32753;DHT22;19121;52.428;10.816;2023-06-14T05:46:17;25.10;36.50
32753;DHT22;19121;52.428;10.816;2023-06-14T05:48:47;25.20;36.60
32753;DHT22;19121;52.428;10.816;2023-06-14T05:51:13;25.20;37.10
32753;DHT22;19121;52.428;10.816;2023-06-14T05:53:38;25.20;36.50
32753;DHT22;19121;52.428;10.816;2023-06-14T05:56:04;25.30;36.50
32753;DHT22;19121;52.428;10.816;2023-06-14T05:58:29;25.30;36.50
32753;DHT22;19121;52.428;10.816;2023-06-14T06:00:55;25.40;36.50
32753;DHT22;19121;52.428;10.816;2023-06-14T06:03:20;25.40;36.40
32753;DHT22;19121;52.428;10.816;2023-06-14T06:05:46;25.50;36.50
32753;DHT22;19121;52.428;10.816;2023-06-14T06:08:11;25.50;36.80
32753;DHT22;19121;52.428;10.816;2023-06-14T06:10:37;25.30;37.20
32753;DHT22;19121;52.428;10.816;2023-06-14T06:13:02;25.30;37.80
32753;DHT22;19121;52.428;10.816;2023-06-14T06:15:28;25.10;38.40
32753;DHT22;19121;52.428;10.816;2023-06-14T06:17:53;25.00;39.10
32753;DHT22;19121;52.428;10.816;2023-06-14T06:20:18;24.80;39.40
32753;DHT22;19121;52.428;10.816;2023-06-14T06:22:44;24.70;39.40
32753;DHT22;19121;52.428;10.816;2023-06-14T06:25:09;24.70;39.40
32753;DHT22;19121;52.428;10.816;2023-06-14T06:27:35;24.80;39.50
32753;DHT22;19121;52.428;10.816;2023-06-14T06:30:03;24.90;39.50
32753;DHT22;19121;52.428;10.816;2023-06-14T06:32:28;25.00;39.40
32753;DHT22;19121;52.428;10.816;2023-06-14T06:34:54;25.00;39.00
32753;DHT22;19121;52.428;10.816;2023-06-14T06:37:19;25.00;38.90
32753;DHT22;19121;52.428;10.816;2023-06-14T06:39:45;25.00;38.90
32753;DHT22;19121;52.428;10.816;2023-06-14T06:42:11;24.90;39.20
32753;DHT22;19121;52.428;10.816;2023-06-14T06:44:38;24.80;39.20
32753;DHT22;19121;52.428;10.816;2023-06-14T06:47:03;24.80;39.20
32753;DHT22;19121;52.428;10.816;2023-06-14T06:49:29;24.80;39.40
32753;DHT22;19121;52.428;10.816;2023-06-14T06:52:01;24.70;39.70
32753;DHT22;19121;52.428;10.816;2023-06-14T06:54:27;24.60;40.00
32753;DHT22;19121;52.428;10.816;2023-06-14T06:56:52;24.60;40.10
32753;DHT22;19121;52.428;10.816;2023-06-14T06:59:18;24.80;39.80
32753;DHT22;19121;52.428;10.816;2023-06-14T07:01:43;24.80;39.60
32753;DHT22;19121;52.428;10.816;2023-06-14T07:04:09;24.90;39.30
32753;DHT22;19121;52.428;10.816;2023-06-14T07:06:34;24.90;40.20
32753;DHT22;19121;52.428;10.816;2023-06-14T07:09:00;25.00;39.20
32753;DHT22;19121;52.428;10.816;2023-06-14T07:11:30;25.00;39.10
32753;DHT22;19121;52.428;10.816;2023-06-14T07:13:56;25.00;39.10
32753;DHT22;19121;52.428;10.816;2023-06-14T07:16:21;24.90;39.40
32753;DHT22;19121;52.428;10.816;2023-06-14T07:18:47;24.90;39.10
32753;DHT22;19121;52.428;10.816;2023-06-14T07:21:12;24.90;39.00
32753;DHT22;19121;52.428;10.816;2023-06-14T07:23:37;24.90;39.30
32753;DHT22;19121;52.428;10.816;2023-06-14T07:26:03;24.90;38.60
32753;DHT22;19121;52.428;10.816;2023-06-14T07:28:28;24.80;38.30
32753;DHT22;19121;52.428;10.816;2023-06-14T07:30:54;24.80;38.50
32753;DHT22;19121;52.428;10.816;2023-06-14T07:33:20;24.70;38.50
32753;DHT22;19121;52.428;10.816;2023-06-14T07:35:45;24.70;38.30
32753;DHT22;19121;52.428;10.816;2023-06-14T07:38:11;24.80;39.00
32753;DHT22;19121;52.428;10.816;2023-06-14T07:40:36;24.80;38.90
32753;DHT22;19121;52.428;10.816;2023-06-14T07:43:02;24.90;38.60
32753;DHT22;19121;52.428;10.816;2023-06-14T07:45:27;24.90;38.10
32753;DHT22;19121;52.428;10.816;2023-06-14T07:47:53;24.80;38.60
32753;DHT22;19121;52.428;10.816;2023-06-14T07:50:18;24.90;38.60
32753;DHT22;19121;52.428;10.816;2023-06-14T07:52:44;24.90;38.20
32753;DHT22;19121;52.428;10.816;2023-06-14T07:55:10;24.90;38.30
32753;DHT22;19121;52.428;10.816;2023-06-14T07:57:35;24.80;38.40
32753;DHT22;19121;52.428;10.816;2023-06-14T08:00:01;24.70;38.50
32753;DHT22;19121;52.428;10.816;2023-06-14T08:02:26;24.70;38.70
32753;DHT22;19121;52.428;10.816;2023-06-14T08:04:51;24.60;38.60
32753;DHT22;19121;52.428;10.816;2023-06-14T08:07:17;24.60;39.00
32753;DHT22;19121;52.428;10.816;2023-06-14T08:09:43;24.80;39.10
32753;DHT22;19121;52.428;10.816;2023-06-14T08:12:08;24.80;38.70
32753;DHT22;19121;52.428;10.816;2023-06-14T08:14:35;24.90;38.50
32753;DHT22;19121;52.428;10.816;2023-06-14T08:17:00;24.90;38.30
32753;DHT22;19121;52.428;10.816;2023-06-14T08:19:26;24.90;38.40
32753;DHT22;19121;52.428;10.816;2023-06-14T08:21:51;24.90;38.50
32753;DHT22;19121;52.428;10.816;2023-06-14T08:24:20;24.90;38.10
32753;DHT22;19121;52.428;10.816;2023-06-14T08:26:46;24.90;37.70
32753;DHT22;19121;52.428;10.816;2023-06-14T08:29:11;24.90;37.70
32753;DHT22;19121;52.428;10.816;2023-06-14T08:31:36;24.90;37.50
32753;DHT22;19121;52.428;10.816;2023-06-14T08:34:02;24.80;37.60
32753;DHT22;19121;52.428;10.816;2023-06-14T08:36:27;24.80;37.50
32753;DHT22;19121;52.428;10.816;2023-06-14T08:38:53;24.80;37.50
32753;DHT22;19121;52.428;10.816;2023-06-14T08:41:20;24.70;37.30
32753;DHT22;19121;52.428;10.816;2023-06-14T08:43:47;24.60;37.50
32753;DHT22;19121;52.428;10.816;2023-06-14T08:46:12;24.60;37.50
32753;DHT22;19121;52.428;10.816;2023-06-14T08:48:41;24.50;37.70
32753;DHT22;19121;52.428;10.816;2023-06-14T08:51:08;24.50;37.90
32753;DHT22;19121;52.428;10.816;2023-06-14T08:53:35;24.50;37.90
32753;DHT22;19121;52.428;10.816;2023-06-14T08:56:01;24.50;38.50
32753;DHT22;19121;52.428;10.816;2023-06-14T08:58:28;24.60;38.60
32753;DHT22;19121;52.428;10.816;2023-06-14T09:01:00;24.60;38.10
32753;DHT22;19121;52.428;10.816;2023-06-14T09:03:26;24.70;38.30
32753;DHT22;19121;52.428;10.816;2023-06-14T09:05:56;24.70;37.70
32753;DHT22;19121;52.428;10.816;2023-06-14T09:08:21;24.60;38.20
32753;DHT22;19121;52.428;10.816;2023-06-14T09:10:47;24.60;37.90
32753;DHT22;19121;52.428;10.816;2023-06-14T09:13:12;24.70;38.50
32753;DHT22;19121;52.428;10.816;2023-06-14T09:15:38;24.80;38.20
32753;DHT22;19121;52.428;10.816;2023-06-14T09:18:03;24.80;38.30
32753;DHT22;19121;52.428;10.816;2023-06-14T09:20:29;24.80;38.20
32753;DHT22;19121;52.428;10.816;2023-06-14T09:22:55;24.70;38.10
32753;DHT22;19121;52.428;10.816;2023-06-14T09:25:23;24.70;37.80
32753;DHT22;19121;52.428;10.816;2023-06-14T09:27:51;24.70;38.20
32753;DHT22;19121;52.428;10.816;2023-06-14T09:30:19;24.70;38.30
32753;DHT22;19121;52.428;10.816;2023-06-14T09:32:45;24.80;38.30
32753;DHT22;19121;52.428;10.816;2023-06-14T09:35:10;24.80;38.20
32753;DHT22;19121;52.428;10.816;2023-06-14T09:37:36;24.80;38.00
32753;DHT22;19121;52.428;10.816;2023-06-14T09:40:03;24.80;38.10
32753;DHT22;19121;52.428;10.816;2023-06-14T09:42:29;24.80;38.10
32753;DHT22;19121;52.428;10.816;2023-06-14T09:44:56;24.80;38.40
32753;DHT22;19121;52.428;10.816;2023-06-14T09:47:22;24.80;38.30
32753;DHT22;19121;52.428;10.816;2023-06-14T09:49:48;24.80;38.40
32753;DHT22;19121;52.428;10.816;2023-06-14T09:52:18;24.80;38.40
32753;DHT22;19121;52.428;10.816;2023-06-14T09:54:44;24.80;38.50
32753;DHT22;19121;52.428;10.816;2023-06-14T09:57:14;24.80;38.50
32753;DHT22;19121;52.428;10.816;2023-06-14T09:59:43;24.80;38.60
32753;DHT22;19121;52.428;10.816;2023-06-14T10:02:11;24.80;38.90
32753;DHT22;19121;52.428;10.816;2023-06-14T10:04:38;24.80;39.10
32753;DHT22;19121;52.428;10.816;2023-06-14T10:07:05;24.80;39.10
32753;DHT22;19121;52.428;10.816;2023-06-14T10:09:30;24.80;39.40
32753;DHT22;19121;52.428;10.816;2023-06-14T10:11:58;24.80;39.30
32753;DHT22;19121;52.428;10.816;2023-06-14T10:14:23;24.90;39.20
32753;DHT22;19121;52.428;10.816;2023-06-14T10:16:52;25.00;39.10
32753;DHT22;19121;52.428;10.816;2023-06-14T10:19:22;25.10;39.10
32753;DHT22;19121;52.428;10.816;2023-06-14T10:21:57;25.10;39.00
32753;DHT22;19121;52.428;10.816;2023-06-14T10:24:28;25.20;39.10
32753;DHT22;19121;52.428;10.816;2023-06-14T10:26:56;25.20;39.10
32753;DHT22;19121;52.428;10.816;2023-06-14T10:29:22;25.30;39.00
32753;DHT22;19121;52.428;10.816;2023-06-14T10:31:48;25.30;39.10
32753;DHT22;19121;52.428;10.816;2023-06-14T10:34:23;25.30;39.10
32753;DHT22;19121;52.428;10.816;2023-06-14T10:37:23;25.30;39.00
32753;DHT22;19121;52.428;10.816;2023-06-14T10:39:42;25.30;39.00
32753;DHT22;19121;52.428;10.816;2023-06-14T10:42:09;25.30;39.00
32753;DHT22;19121;52.428;10.816;2023-06-14T10:47:06;25.40;39.10
32753;DHT22;19121;52.428;10.816;2023-06-14T10:49:44;25.40;39.00
32753;DHT22;19121;52.428;10.816;2023-06-14T10:57:29;25.40;39.10
32753;DHT22;19121;52.428;10.816;2023-06-14T10:59:57;25.40;39.20
32753;DHT22;19121;52.428;10.816;2023-06-14T11:02:38;25.40;39.10
32753;DHT22;19121;52.428;10.816;2023-06-14T11:05:06;25.40;39.10
32753;DHT22;19121;52.428;10.816;2023-06-14T11:07:57;25.40;39.10
32753;DHT22;19121;52.428;10.816;2023-06-14T11:10:36;25.40;39.00
32753;DHT22;19121;52.428;10.816;2023-06-14T11:13:03;25.40;39.00
32753;DHT22;19121;52.428;10.816;2023-06-14T11:15:34;25.40;38.90
32753;DHT22;19121;52.428;10.816;2023-06-14T11:18:01;25.40;38.90
32753;DHT22;19121;52.428;10.816;2023-06-14T11:20:27;25.40;38.90
32753;DHT22;19121;52.428;10.816;2023-06-14T11:22:52;25.50;39.00
32753;DHT22;19121;52.428;10.816;2023-06-14T11:25:18;25.50;39.00
32753;DHT22;19121;52.428;10.816;2023-06-14T11:27:44;25.50;38.80
32753;DHT22;19121;52.428;10.816;2023-06-14T11:30:09;25.50;38.80
32753;DHT22;19121;52.428;10.816;2023-06-14T11:32:36;25.50;38.70
32753;DHT22;19121;52.428;10.816;2023-06-14T11:35:02;25.50;38.70
32753;DHT22;19121;52.428;10.816;2023-06-14T11:37:28;25.50;38.70
32753;DHT22;19121;52.428;10.816;2023-06-14T11:39:58;25.50;38.70
32753;DHT22;19121;52.428;10.816;2023-06-14T11:42:24;25.50;38.70
32753;DHT22;19121;52.428;10.816;2023-06-14T11:44:51;25.60;38.70
32753;DHT22;19121;52.428;10.816;2023-06-14T11:47:17;25.50;38.60
32753;DHT22;19121;52.428;10.816;2023-06-14T11:49:42;25.50;38.50
32753;DHT22;19121;52.428;10.816;2023-06-14T11:52:08;25.50;38.50
32753;DHT22;19121;52.428;10.816;2023-06-14T11:54:34;25.50;38.30
32753;DHT22;19121;52.428;10.816;2023-06-14T11:57:00;25.50;38.30
32753;DHT22;19121;52.428;10.816;2023-06-14T11:59:25;25.60;38.40
32753;DHT22;19121;52.428;10.816;2023-06-14T12:01:52;25.60;38.40
32753;DHT22;19121;52.428;10.816;2023-06-14T12:04:26;25.60;38.30
32753;DHT22;19121;52.428;10.816;2023-06-14T12:06:52;25.60;38.30
32753;DHT22;19121;52.428;10.816;2023-06-14T12:09:18;25.60;38.30
32753;DHT22;19121;52.428;10.816;2023-06-14T12:11:45;25.60;38.20
32753;DHT22;19121;52.428;10.816;2023-06-14T12:14:10;25.60;38.30
32753;DHT22;19121;52.428;10.816;2023-06-14T12:16:39;25.60;38.20
32753;DHT22;19121;52.428;10.816;2023-06-14T12:19:12;25.60;38.20
32753;DHT22;19121;52.428;10.816;2023-06-14T12:21:38;25.60;38.30
32753;DHT22;19121;52.428;10.816;2023-06-14T12:24:05;25.60;38.30
32753;DHT22;19121;52.428;10.816;2023-06-14T12:26:32;25.60;38.30
32753;DHT22;19121;52.428;10.816;2023-06-14T12:28:57;25.60;38.40
32753;DHT22;19121;52.428;10.816;2023-06-14T12:31:23;25.50;38.30
32753;DHT22;19121;52.428;10.816;2023-06-14T12:33:49;25.50;38.40
32753;DHT22;19121;52.428;10.816;2023-06-14T12:36:15;25.50;38.40
32753;DHT22;19121;52.428;10.816;2023-06-14T12:38:41;25.50;38.40
32753;DHT22;19121;52.428;10.816;2023-06-14T12:41:06;25.50;38.30
32753;DHT22;19121;52.428;10.816;2023-06-14T12:43:33;25.50;38.10
32753;DHT22;19121;52.428;10.816;2023-06-14T12:45:58;25.50;37.90
32753;DHT22;19121;52.428;10.816;2023-06-14T12:48:24;25.50;37.90
32753;DHT22;19121;52.428;10.816;2023-06-14T12:50:49;25.50;37.90
32753;DHT22;19121;52.428;10.816;2023-06-14T12:53:15;25.50;37.80
32753;DHT22;19121;52.428;10.816;2023-06-14T12:55:40;25.50;37.90
32753;DHT22;19121;52.428;10.816;2023-06-14T12:58:06;25.60;38.00
32753;DHT22;19121;52.428;10.816;2023-06-14T13:00:32;25.60;38.60
32753;DHT22;19121;52.428;10.816;2023-06-14T13:02:57;25.60;38.10
32753;DHT22;19121;52.428;10.816;2023-06-14T13:05:23;25.60;38.00
32753;DHT22;19121;52.428;10.816;2023-06-14T13:07:49;25.60;38.50
32753;DHT22;19121;52.428;10.816;2023-06-14T13:10:14;25.60;37.90
32753;DHT22;19121;52.428;10.816;2023-06-14T13:12:40;25.60;37.90
32753;DHT22;19121;52.428;10.816;2023-06-14T13:15:05;25.60;37.80
32753;DHT22;19121;52.428;10.816;2023-06-14T13:17:32;25.60;37.70
32753;DHT22;19121;52.428;10.816;2023-06-14T13:19:58;25.60;37.80
32753;DHT22;19121;52.428;10.816;2023-06-14T13:22:24;25.60;37.90
32753;DHT22;19121;52.428;10.816;2023-06-14T13:24:50;25.60;37.80
32753;DHT22;19121;52.428;10.816;2023-06-14T13:27:15;25.70;37.80
32753;DHT22;19121;52.428;10.816;2023-06-14T13:29:41;25.60;37.80
32753;DHT22;19121;52.428;10.816;2023-06-14T13:32:06;25.60;37.90
32753;DHT22;19121;52.428;10.816;2023-06-14T13:34:32;25.60;37.80
32753;DHT22;19121;52.428;10.816;2023-06-14T13:36:57;25.60;37.90
32753;DHT22;19121;52.428;10.816;2023-06-14T13:39:24;25.60;37.80
32753;DHT22;19121;52.428;10.816;2023-06-14T13:41:50;25.60;37.80
32753;DHT22;19121;52.428;10.816;2023-06-14T13:44:15;25.70;37.80
32753;DHT22;19121;52.428;10.816;2023-06-14T13:46:44;25.70;37.80
32753;DHT22;19121;52.428;10.816;2023-06-14T13:49:09;25.70;37.70
32753;DHT22;19121;52.428;10.816;2023-06-14T13:51:35;25.70;37.60
32753;DHT22;19121;52.428;10.816;2023-06-14T13:54:00;25.70;37.60
32753;DHT22;19121;52.428;10.816;2023-06-14T13:56:26;25.70;37.50
32753;DHT22;19121;52.428;10.816;2023-06-14T13:58:52;25.70;37.60
32753;DHT22;19121;52.428;10.816;2023-06-14T14:01:17;25.70;37.60
32753;DHT22;19121;52.428;10.816;2023-06-14T14:03:45;25.70;37.60
32753;DHT22;19121;52.428;10.816;2023-06-14T14:06:11;25.70;37.80
32753;DHT22;19121;52.428;10.816;2023-06-14T14:08:36;25.70;37.80
32753;DHT22;19121;52.428;10.816;2023-06-14T14:11:02;25.70;37.90
32753;DHT22;19121;52.428;10.816;2023-06-14T14:13:27;25.70;38.00
32753;DHT22;19121;52.428;10.816;2023-06-14T14:15:53;25.70;38.00
32753;DHT22;19121;52.428;10.816;2023-06-14T14:18:19;25.70;37.90
32753;DHT22;19121;52.428;10.816;2023-06-14T14:20:46;25.70;37.90
32753;DHT22;19121;52.428;10.816;2023-06-14T14:23:11;25.70;37.80
32753;DHT22;19121;52.428;10.816;2023-06-14T14:25:37;25.80;37.80
32753;DHT22;19121;52.428;10.816;2023-06-14T14:28:02;25.80;37.80
32753;DHT22;19121;52.428;10.816;2023-06-14T14:30:28;25.80;37.80
32753;DHT22;19121;52.428;10.816;2023-06-14T14:32:54;25.80;37.80
32753;DHT22;19121;52.428;10.816;2023-06-14T14:35:19;25.80;37.70
32753;DHT22;19121;52.428;10.816;2023-06-14T14:37:45;25.80;37.70
32753;DHT22;19121;52.428;10.816;2023-06-14T14:40:11;25.80;37.70
32753;DHT22;19121;52.428;10.816;2023-06-14T14:42:36;25.80;37.70
32753;DHT22;19121;52.428;10.816;2023-06-14T14:45:02;25.80;37.60
32753;DHT22;19121;52.428;10.816;2023-06-14T14:47:27;25.80;37.50
32753;DHT22;19121;52.428;10.816;2023-06-14T14:49:53;25.80;37.50
32753;DHT22;19121;52.428;10.816;2023-06-14T14:52:18;25.80;37.40
32753;DHT22;19121;52.428;10.816;2023-06-14T14:54:44;25.80;37.40
32753;DHT22;19121;52.428;10.816;2023-06-14T14:57:09;25.80;37.40
32753;DHT22;19121;52.428;10.816;2023-06-14T14:59:35;25.80;37.50
32753;DHT22;19121;52.428;10.816;2023-06-14T15:02:01;25.90;37.50
32753;DHT22;19121;52.428;10.816;2023-06-14T15:04:26;25.90;37.50
32753;DHT22;19121;52.428;10.816;2023-06-14T15:06:52;25.80;37.70
32753;DHT22;19121;52.428;10.816;2023-06-14T15:09:17;25.80;37.20
32753;DHT22;19121;52.428;10.816;2023-06-14T15:11:43;25.80;37.10
32753;DHT22;19121;52.428;10.816;2023-06-14T15:14:09;25.80;37.10
32753;DHT22;19121;52.428;10.816;2023-06-14T15:16:35;25.80;37.10
32753;DHT22;19121;52.428;10.816;2023-06-14T15:19:01;25.80;37.80
32753;DHT22;19121;52.428;10.816;2023-06-14T15:21:26;25.80;37.30